sensor_id;sensor_type;location;lat;lon;timestamp;P1;durP1;ratioP1;P2;durP2;ratioP2
9964;SDS011;5023;53.554;9.964;2023-02-08T00:04:18;20.43;;;14.50;;
9964;SDS011;5023;53.554;9.964;2023-02-08T00:09:20;20.20;;;13.70;;
9964;SDS011;5023;53.554;9.964;2023-02-08T00:14:24;21.97;;;15.77;;
9964;SDS011;5023;53.554;9.964;2023-02-08T00:19:26;29.33;;;19.87;;
9964;SDS011;5023;53.554;9.964;2023-02-08T00:24:28;26.83;;;17.67;;
9964;SDS011;5023;53.554;9.964;2023-02-08T00:29:34;25.07;;;16.37;;
9964;SDS011;5023;53.554;9.964;2023-02-08T00:34:37;22.03;;;15.90;;
9964;SDS011;5023;53.554;9.964;2023-02-08T00:39:39;21.17;;;15.97;;
9964;SDS011;5023;53.554;9.964;2023-02-08T00:44:42;20.33;;;14.43;;
9964;SDS011;5023;53.554;9.964;2023-02-08T00:49:44;21.43;;;15.20;;
9964;SDS011;5023;53.554;9.964;2023-02-08T00:54:47;20.53;;;15.23;;
9964;SDS011;5023;53.554;9.964;2023-02-08T00:59:50;21.53;;;14.90;;
9964;SDS011;5023;53.554;9.964;2023-02-08T01:04:53;23.77;;;16.13;;
9964;SDS011;5023;53.554;9.964;2023-02-08T01:09:55;22.43;;;16.20;;
9964;SDS011;5023;53.554;9.964;2023-02-08T01:14:58;21.03;;;15.67;;
9964;SDS011;5023;53.554;9.964;2023-02-08T01:20:01;21.17;;;15.40;;
9964;SDS011;5023;53.554;9.964;2023-02-08T01:25:06;19.50;;;15.27;;
9964;SDS011;5023;53.554;9.964;2023-02-08T01:30:11;18.90;;;15.20;;
9964;SDS011;5023;53.554;9.964;2023-02-08T01:35:13;21.97;;;15.93;;
9964;SDS011;5023;53.554;9.964;2023-02-08T01:40:16;22.63;;;15.37;;
9964;SDS011;5023;53.554;9.964;2023-02-08T01:45:22;22.33;;;15.60;;
9964;SDS011;5023;53.554;9.964;2023-02-08T01:50:29;25.13;;;16.40;;
9964;SDS011;5023;53.554;9.964;2023-02-08T01:55:36;22.23;;;16.13;;
9964;SDS011;5023;53.554;9.964;2023-02-08T02:00:44;22.77;;;16.50;;
9964;SDS011;5023;53.554;9.964;2023-02-08T02:05:51;22.80;;;16.30;;
9964;SDS011;5023;53.554;9.964;2023-02-08T02:10:57;22.63;;;16.90;;
9964;SDS011;5023;53.554;9.964;2023-02-08T02:16:05;24.27;;;16.50;;
9964;SDS011;5023;53.554;9.964;2023-02-08T02:21:21;22.40;;;17.23;;
9964;SDS011;5023;53.554;9.964;2023-02-08T02:32:17;23.23;;;17.50;;
9964;SDS011;5023;53.554;9.964;2023-02-08T02:37:31;33.90;;;24.90;;
9964;SDS011;5023;53.554;9.964;2023-02-08T02:42:57;21.43;;;17.20;;
9964;SDS011;5023;53.554;9.964;2023-02-08T02:48:24;21.80;;;16.90;;
9964;SDS011;5023;53.554;9.964;2023-02-08T02:53:33;23.57;;;17.63;;
9964;SDS011;5023;53.554;9.964;2023-02-08T02:58:42;24.53;;;18.13;;
9964;SDS011;5023;53.554;9.964;2023-02-08T03:03:46;27.40;;;18.93;;
9964;SDS011;5023;53.554;9.964;2023-02-08T03:09:04;29.07;;;18.43;;
9964;SDS011;5023;53.554;9.964;2023-02-08T03:14:24;27.30;;;19.23;;
9964;SDS011;5023;53.554;9.964;2023-02-08T03:19:35;28.00;;;18.73;;
9964;SDS011;5023;53.554;9.964;2023-02-08T03:24:45;26.80;;;19.33;;
9964;SDS011;5023;53.554;9.964;2023-02-08T03:29:53;28.63;;;19.33;;
9964;SDS011;5023;53.554;9.964;2023-02-08T03:35:01;31.13;;;19.57;;
9964;SDS011;5023;53.554;9.964;2023-02-08T03:40:10;30.33;;;20.90;;
9964;SDS011;5023;53.554;9.964;2023-02-08T03:45:17;29.13;;;19.73;;
9964;SDS011;5023;53.554;9.964;2023-02-08T03:50:28;30.67;;;20.73;;
9964;SDS011;5023;53.554;9.964;2023-02-08T03:55:36;29.87;;;19.83;;
9964;SDS011;5023;53.554;9.964;2023-02-08T04:00:39;31.70;;;21.60;;
9964;SDS011;5023;53.554;9.964;2023-02-08T04:05:46;28.43;;;20.20;;
9964;SDS011;5023;53.554;9.964;2023-02-08T04:10:49;32.17;;;21.30;;
9964;SDS011;5023;53.554;9.964;2023-02-08T04:15:51;31.77;;;21.10;;
9964;SDS011;5023;53.554;9.964;2023-02-08T04:20:55;31.00;;;21.47;;
9964;SDS011;5023;53.554;9.964;2023-02-08T04:25:57;29.77;;;20.60;;
9964;SDS011;5023;53.554;9.964;2023-02-08T04:30:59;32.63;;;21.13;;
9964;SDS011;5023;53.554;9.964;2023-02-08T04:36:03;30.40;;;21.50;;
9964;SDS011;5023;53.554;9.964;2023-02-08T04:41:08;33.67;;;22.47;;
9964;SDS011;5023;53.554;9.964;2023-02-08T04:46:10;33.10;;;21.83;;
9964;SDS011;5023;53.554;9.964;2023-02-08T04:51:14;36.63;;;23.43;;
9964;SDS011;5023;53.554;9.964;2023-02-08T04:56:16;40.47;;;26.73;;
9964;SDS011;5023;53.554;9.964;2023-02-08T05:01:18;31.60;;;21.33;;
9964;SDS011;5023;53.554;9.964;2023-02-08T05:06:22;37.57;;;22.13;;
9964;SDS011;5023;53.554;9.964;2023-02-08T05:11:24;35.37;;;22.50;;
9964;SDS011;5023;53.554;9.964;2023-02-08T05:16:26;32.77;;;23.27;;
9964;SDS011;5023;53.554;9.964;2023-02-08T05:21:30;31.67;;;21.43;;
9964;SDS011;5023;53.554;9.964;2023-02-08T05:26:32;33.43;;;21.43;;
9964;SDS011;5023;53.554;9.964;2023-02-08T05:31:34;32.33;;;21.13;;
9964;SDS011;5023;53.554;9.964;2023-02-08T05:36:38;34.00;;;22.70;;
9964;SDS011;5023;53.554;9.964;2023-02-08T05:41:40;33.73;;;21.37;;
9964;SDS011;5023;53.554;9.964;2023-02-08T05:46:42;33.67;;;22.13;;
9964;SDS011;5023;53.554;9.964;2023-02-08T05:51:45;34.30;;;22.03;;
9964;SDS011;5023;53.554;9.964;2023-02-08T05:56:50;37.20;;;26.47;;
9964;SDS011;5023;53.554;9.964;2023-02-08T06:01:52;33.53;;;21.50;;
9964;SDS011;5023;53.554;9.964;2023-02-08T06:06:56;33.23;;;22.03;;
9964;SDS011;5023;53.554;9.964;2023-02-08T06:12:00;33.10;;;22.63;;
9964;SDS011;5023;53.554;9.964;2023-02-08T06:17:04;36.33;;;23.37;;
9964;SDS011;5023;53.554;9.964;2023-02-08T06:22:07;35.57;;;22.20;;
9964;SDS011;5023;53.554;9.964;2023-02-08T06:27:10;34.47;;;23.67;;
9964;SDS011;5023;53.554;9.964;2023-02-08T06:32:12;37.10;;;24.03;;
9964;SDS011;5023;53.554;9.964;2023-02-08T06:37:15;44.43;;;27.70;;
9964;SDS011;5023;53.554;9.964;2023-02-08T06:42:18;34.73;;;22.23;;
9964;SDS011;5023;53.554;9.964;2023-02-08T06:47:20;35.13;;;22.80;;
9964;SDS011;5023;53.554;9.964;2023-02-08T06:52:24;40.60;;;25.10;;
9964;SDS011;5023;53.554;9.964;2023-02-08T06:57:26;34.53;;;22.63;;
9964;SDS011;5023;53.554;9.964;2023-02-08T07:02:29;35.40;;;23.87;;
9964;SDS011;5023;53.554;9.964;2023-02-08T07:07:32;39.30;;;24.33;;
9964;SDS011;5023;53.554;9.964;2023-02-08T07:12:35;40.30;;;25.00;;
9964;SDS011;5023;53.554;9.964;2023-02-08T07:17:37;39.83;;;24.67;;
9964;SDS011;5023;53.554;9.964;2023-02-08T07:22:48;42.37;;;27.00;;
9964;SDS011;5023;53.554;9.964;2023-02-08T07:27:59;38.33;;;25.07;;
9964;SDS011;5023;53.554;9.964;2023-02-08T07:33:01;39.93;;;24.67;;
9964;SDS011;5023;53.554;9.964;2023-02-08T07:38:05;35.30;;;22.57;;
9964;SDS011;5023;53.554;9.964;2023-02-08T07:43:07;37.90;;;23.20;;
9964;SDS011;5023;53.554;9.964;2023-02-08T07:48:14;39.10;;;24.60;;
9964;SDS011;5023;53.554;9.964;2023-02-08T07:53:18;39.93;;;24.83;;
9964;SDS011;5023;53.554;9.964;2023-02-08T07:58:20;40.27;;;25.77;;
9964;SDS011;5023;53.554;9.964;2023-02-08T08:03:23;37.13;;;23.90;;
9964;SDS011;5023;53.554;9.964;2023-02-08T08:08:26;41.67;;;25.43;;
9964;SDS011;5023;53.554;9.964;2023-02-08T08:13:29;39.50;;;25.23;;
9964;SDS011;5023;53.554;9.964;2023-02-08T08:18:31;38.80;;;25.43;;
9964;SDS011;5023;53.554;9.964;2023-02-08T08:23:35;39.57;;;25.73;;
9964;SDS011;5023;53.554;9.964;2023-02-08T08:28:37;40.43;;;24.97;;
9964;SDS011;5023;53.554;9.964;2023-02-08T08:33:39;37.70;;;24.20;;
9964;SDS011;5023;53.554;9.964;2023-02-08T08:38:44;40.17;;;25.53;;
9964;SDS011;5023;53.554;9.964;2023-02-08T08:43:47;41.27;;;24.93;;
9964;SDS011;5023;53.554;9.964;2023-02-08T08:48:50;40.93;;;25.00;;
9964;SDS011;5023;53.554;9.964;2023-02-08T08:54:00;43.03;;;26.70;;
9964;SDS011;5023;53.554;9.964;2023-02-08T08:59:02;42.83;;;26.33;;
9964;SDS011;5023;53.554;9.964;2023-02-08T09:04:04;39.00;;;24.87;;
9964;SDS011;5023;53.554;9.964;2023-02-08T09:09:08;37.53;;;24.03;;
9964;SDS011;5023;53.554;9.964;2023-02-08T09:14:10;43.90;;;24.73;;
9964;SDS011;5023;53.554;9.964;2023-02-08T09:19:15;40.13;;;24.33;;
9964;SDS011;5023;53.554;9.964;2023-02-08T09:24:19;39.27;;;23.63;;
9964;SDS011;5023;53.554;9.964;2023-02-08T09:29:21;40.87;;;24.63;;
9964;SDS011;5023;53.554;9.964;2023-02-08T09:34:24;38.57;;;24.23;;
9964;SDS011;5023;53.554;9.964;2023-02-08T09:39:28;40.37;;;24.27;;
9964;SDS011;5023;53.554;9.964;2023-02-08T09:44:31;39.70;;;24.43;;
9964;SDS011;5023;53.554;9.964;2023-02-08T09:49:43;42.53;;;25.33;;
9964;SDS011;5023;53.554;9.964;2023-02-08T09:54:57;40.33;;;25.00;;
9964;SDS011;5023;53.554;9.964;2023-02-08T10:00:03;44.27;;;26.23;;
9964;SDS011;5023;53.554;9.964;2023-02-08T10:05:13;44.40;;;26.23;;
9964;SDS011;5023;53.554;9.964;2023-02-08T10:10:23;48.53;;;28.17;;
9964;SDS011;5023;53.554;9.964;2023-02-08T10:15:39;44.00;;;25.00;;
9964;SDS011;5023;53.554;9.964;2023-02-08T10:20:51;38.30;;;24.10;;
9964;SDS011;5023;53.554;9.964;2023-02-08T10:26:12;39.30;;;25.40;;
9964;SDS011;5023;53.554;9.964;2023-02-08T10:31:23;35.40;;;23.07;;
9964;SDS011;5023;53.554;9.964;2023-02-08T10:36:35;37.77;;;23.53;;
9964;SDS011;5023;53.554;9.964;2023-02-08T10:41:42;39.40;;;24.07;;
9964;SDS011;5023;53.554;9.964;2023-02-08T10:46:46;35.97;;;22.87;;
9964;SDS011;5023;53.554;9.964;2023-02-08T10:51:55;153.17;;;32.73;;
9964;SDS011;5023;53.554;9.964;2023-02-08T10:56:59;307.43;;;47.30;;
9964;SDS011;5023;53.554;9.964;2023-02-08T11:02:07;42.03;;;25.40;;
9964;SDS011;5023;53.554;9.964;2023-02-08T11:07:25;50.00;;;27.13;;
9964;SDS011;5023;53.554;9.964;2023-02-08T11:12:30;38.17;;;23.50;;
9964;SDS011;5023;53.554;9.964;2023-02-08T11:17:32;35.27;;;23.80;;
9964;SDS011;5023;53.554;9.964;2023-02-08T11:22:34;38.50;;;24.17;;
9964;SDS011;5023;53.554;9.964;2023-02-08T11:27:41;36.43;;;22.90;;
9964;SDS011;5023;53.554;9.964;2023-02-08T11:38:19;36.10;;;21.97;;
9964;SDS011;5023;53.554;9.964;2023-02-08T11:43:28;36.77;;;23.47;;
9964;SDS011;5023;53.554;9.964;2023-02-08T11:48:36;32.13;;;19.70;;
9964;SDS011;5023;53.554;9.964;2023-02-08T11:53:46;35.33;;;22.57;;
9964;SDS011;5023;53.554;9.964;2023-02-08T11:58:59;33.37;;;19.93;;
9964;SDS011;5023;53.554;9.964;2023-02-08T12:04:11;31.40;;;19.27;;
9964;SDS011;5023;53.554;9.964;2023-02-08T12:09:34;29.27;;;19.33;;
9964;SDS011;5023;53.554;9.964;2023-02-08T12:14:54;32.13;;;17.47;;
9964;SDS011;5023;53.554;9.964;2023-02-08T12:25:46;31.97;;;19.83;;
9964;SDS011;5023;53.554;9.964;2023-02-08T12:30:56;27.67;;;16.47;;
9964;SDS011;5023;53.554;9.964;2023-02-08T12:36:26;23.20;;;15.20;;
9964;SDS011;5023;53.554;9.964;2023-02-08T12:41:38;23.40;;;15.27;;
9964;SDS011;5023;53.554;9.964;2023-02-08T12:46:57;23.97;;;15.73;;
9964;SDS011;5023;53.554;9.964;2023-02-08T12:52:19;21.57;;;15.23;;
9964;SDS011;5023;53.554;9.964;2023-02-08T12:57:36;24.67;;;15.27;;
9964;SDS011;5023;53.554;9.964;2023-02-08T13:02:52;23.93;;;14.53;;
9964;SDS011;5023;53.554;9.964;2023-02-08T13:08:01;23.53;;;15.63;;
9964;SDS011;5023;53.554;9.964;2023-02-08T13:13:11;24.83;;;15.83;;
9964;SDS011;5023;53.554;9.964;2023-02-08T13:18:20;22.40;;;15.57;;
9964;SDS011;5023;53.554;9.964;2023-02-08T13:23:29;26.13;;;17.23;;
9964;SDS011;5023;53.554;9.964;2023-02-08T13:28:40;21.63;;;15.60;;
9964;SDS011;5023;53.554;9.964;2023-02-08T13:33:50;26.10;;;16.57;;
9964;SDS011;5023;53.554;9.964;2023-02-08T13:38:57;25.37;;;14.13;;
9964;SDS011;5023;53.554;9.964;2023-02-08T13:44:01;23.77;;;14.50;;
9964;SDS011;5023;53.554;9.964;2023-02-08T13:49:10;20.27;;;13.70;;
9964;SDS011;5023;53.554;9.964;2023-02-08T14:00:30;19.93;;;12.77;;
9964;SDS011;5023;53.554;9.964;2023-02-08T14:05:38;14.67;;;10.70;;
9964;SDS011;5023;53.554;9.964;2023-02-08T14:10:49;14.77;;;10.80;;
9964;SDS011;5023;53.554;9.964;2023-02-08T14:16:25;13.83;;;9.33;;
9964;SDS011;5023;53.554;9.964;2023-02-08T14:21:33;13.30;;;8.87;;
9964;SDS011;5023;53.554;9.964;2023-02-08T14:26:39;12.27;;;8.73;;
9964;SDS011;5023;53.554;9.964;2023-02-08T14:31:45;17.93;;;11.37;;
9964;SDS011;5023;53.554;9.964;2023-02-08T14:36:57;15.10;;;9.97;;
9964;SDS011;5023;53.554;9.964;2023-02-08T14:42:07;14.07;;;9.53;;
9964;SDS011;5023;53.554;9.964;2023-02-08T14:47:49;13.93;;;9.13;;
9964;SDS011;5023;53.554;9.964;2023-02-08T14:53:05;16.50;;;10.40;;
9964;SDS011;5023;53.554;9.964;2023-02-08T14:58:32;14.07;;;10.07;;
9964;SDS011;5023;53.554;9.964;2023-02-08T15:03:38;16.27;;;10.20;;
9964;SDS011;5023;53.554;9.964;2023-02-08T15:08:43;18.27;;;11.33;;
9964;SDS011;5023;53.554;9.964;2023-02-08T15:13:59;20.17;;;12.30;;
9964;SDS011;5023;53.554;9.964;2023-02-08T15:19:06;21.83;;;13.07;;
9964;SDS011;5023;53.554;9.964;2023-02-08T15:24:12;21.20;;;14.67;;
9964;SDS011;5023;53.554;9.964;2023-02-08T15:29:18;18.23;;;12.83;;
9964;SDS011;5023;53.554;9.964;2023-02-08T15:34:24;23.87;;;14.67;;
9964;SDS011;5023;53.554;9.964;2023-02-08T15:39:29;21.00;;;13.40;;
9964;SDS011;5023;53.554;9.964;2023-02-08T15:44:35;20.53;;;14.00;;
9964;SDS011;5023;53.554;9.964;2023-02-08T15:49:46;18.77;;;13.23;;
9964;SDS011;5023;53.554;9.964;2023-02-08T15:54:53;21.00;;;14.57;;
9964;SDS011;5023;53.554;9.964;2023-02-08T15:59:55;20.20;;;13.93;;
9964;SDS011;5023;53.554;9.964;2023-02-08T16:05:00;21.13;;;14.60;;
9964;SDS011;5023;53.554;9.964;2023-02-08T16:10:20;24.07;;;15.43;;
9964;SDS011;5023;53.554;9.964;2023-02-08T16:15:36;22.67;;;15.60;;
9964;SDS011;5023;53.554;9.964;2023-02-08T16:20:42;18.13;;;13.13;;
9964;SDS011;5023;53.554;9.964;2023-02-08T16:25:44;22.27;;;13.40;;
9964;SDS011;5023;53.554;9.964;2023-02-08T16:30:49;22.23;;;15.43;;
9964;SDS011;5023;53.554;9.964;2023-02-08T16:35:55;17.80;;;14.13;;
9964;SDS011;5023;53.554;9.964;2023-02-08T16:41:02;19.37;;;12.23;;
9964;SDS011;5023;53.554;9.964;2023-02-08T16:46:19;18.47;;;12.50;;
9964;SDS011;5023;53.554;9.964;2023-02-08T16:51:37;21.13;;;13.77;;
9964;SDS011;5023;53.554;9.964;2023-02-08T16:56:42;18.90;;;13.53;;
9964;SDS011;5023;53.554;9.964;2023-02-08T17:01:46;22.40;;;14.00;;
9964;SDS011;5023;53.554;9.964;2023-02-08T17:06:51;27.90;;;17.33;;
9964;SDS011;5023;53.554;9.964;2023-02-08T17:11:56;26.30;;;17.10;;
9964;SDS011;5023;53.554;9.964;2023-02-08T17:16:58;30.77;;;18.67;;
9964;SDS011;5023;53.554;9.964;2023-02-08T17:22:02;26.00;;;16.90;;
9964;SDS011;5023;53.554;9.964;2023-02-08T17:27:04;29.47;;;18.10;;
9964;SDS011;5023;53.554;9.964;2023-02-08T17:32:06;31.13;;;20.60;;
9964;SDS011;5023;53.554;9.964;2023-02-08T17:37:10;28.03;;;16.27;;
9964;SDS011;5023;53.554;9.964;2023-02-08T17:42:12;25.77;;;17.17;;
9964;SDS011;5023;53.554;9.964;2023-02-08T17:47:17;28.07;;;17.93;;
9964;SDS011;5023;53.554;9.964;2023-02-08T17:52:22;33.30;;;19.90;;
9964;SDS011;5023;53.554;9.964;2023-02-08T17:57:25;28.87;;;18.60;;
9964;SDS011;5023;53.554;9.964;2023-02-08T18:02:28;26.70;;;17.33;;
9964;SDS011;5023;53.554;9.964;2023-02-08T18:07:34;27.90;;;17.67;;
9964;SDS011;5023;53.554;9.964;2023-02-08T18:12:36;31.20;;;19.70;;
9964;SDS011;5023;53.554;9.964;2023-02-08T18:17:40;30.23;;;19.97;;
9964;SDS011;5023;53.554;9.964;2023-02-08T18:22:44;29.27;;;18.50;;
9964;SDS011;5023;53.554;9.964;2023-02-08T18:27:46;30.40;;;18.40;;
9964;SDS011;5023;53.554;9.964;2023-02-08T18:32:50;30.03;;;18.67;;
9964;SDS011;5023;53.554;9.964;2023-02-08T18:37:54;35.00;;;19.97;;
9964;SDS011;5023;53.554;9.964;2023-02-08T18:42:56;34.53;;;20.60;;
9964;SDS011;5023;53.554;9.964;2023-02-08T18:47:59;35.97;;;21.13;;
9964;SDS011;5023;53.554;9.964;2023-02-08T18:53:05;29.87;;;19.03;;
9964;SDS011;5023;53.554;9.964;2023-02-08T18:58:14;29.47;;;19.77;;
9964;SDS011;5023;53.554;9.964;2023-02-08T19:03:16;32.00;;;19.40;;
9964;SDS011;5023;53.554;9.964;2023-02-08T19:08:20;31.13;;;20.70;;
9964;SDS011;5023;53.554;9.964;2023-02-08T19:13:24;36.60;;;24.80;;
9964;SDS011;5023;53.554;9.964;2023-02-08T19:18:26;41.60;;;24.53;;
9964;SDS011;5023;53.554;9.964;2023-02-08T19:23:42;32.97;;;21.13;;
9964;SDS011;5023;53.554;9.964;2023-02-08T19:28:46;31.70;;;20.50;;
9964;SDS011;5023;53.554;9.964;2023-02-08T19:33:52;31.00;;;19.83;;
9964;SDS011;5023;53.554;9.964;2023-02-08T19:39:00;32.37;;;20.67;;
9964;SDS011;5023;53.554;9.964;2023-02-08T19:44:06;30.80;;;20.07;;
9964;SDS011;5023;53.554;9.964;2023-02-08T19:49:15;33.50;;;20.67;;
9964;SDS011;5023;53.554;9.964;2023-02-08T19:54:19;34.20;;;20.83;;
9964;SDS011;5023;53.554;9.964;2023-02-08T19:59:22;38.10;;;22.63;;
9964;SDS011;5023;53.554;9.964;2023-02-08T20:04:26;34.63;;;21.73;;
9964;SDS011;5023;53.554;9.964;2023-02-08T20:09:32;33.43;;;22.10;;
9964;SDS011;5023;53.554;9.964;2023-02-08T20:14:34;36.03;;;22.20;;
9964;SDS011;5023;53.554;9.964;2023-02-08T20:19:37;38.53;;;24.13;;
9964;SDS011;5023;53.554;9.964;2023-02-08T20:24:41;43.10;;;26.03;;
9964;SDS011;5023;53.554;9.964;2023-02-08T20:29:43;39.67;;;25.80;;
9964;SDS011;5023;53.554;9.964;2023-02-08T20:34:46;36.83;;;24.47;;
9964;SDS011;5023;53.554;9.964;2023-02-08T20:39:50;39.27;;;24.67;;
9964;SDS011;5023;53.554;9.964;2023-02-08T20:44:52;35.67;;;23.67;;
9964;SDS011;5023;53.554;9.964;2023-02-08T20:49:54;36.17;;;24.37;;
9964;SDS011;5023;53.554;9.964;2023-02-08T20:54:58;38.60;;;25.57;;
9964;SDS011;5023;53.554;9.964;2023-02-08T21:00:01;37.80;;;24.20;;
9964;SDS011;5023;53.554;9.964;2023-02-08T21:05:04;35.97;;;24.57;;
9964;SDS011;5023;53.554;9.964;2023-02-08T21:10:09;41.83;;;26.87;;
9964;SDS011;5023;53.554;9.964;2023-02-08T21:15:12;37.57;;;23.83;;
9964;SDS011;5023;53.554;9.964;2023-02-08T21:20:16;37.93;;;23.30;;
9964;SDS011;5023;53.554;9.964;2023-02-08T21:25:19;37.60;;;24.43;;
9964;SDS011;5023;53.554;9.964;2023-02-08T21:30:22;40.50;;;25.77;;
9964;SDS011;5023;53.554;9.964;2023-02-08T21:35:24;45.60;;;27.10;;
9964;SDS011;5023;53.554;9.964;2023-02-08T21:40:28;42.80;;;27.17;;
9964;SDS011;5023;53.554;9.964;2023-02-08T21:45:30;38.33;;;25.53;;
9964;SDS011;5023;53.554;9.964;2023-02-08T21:50:36;39.77;;;25.37;;
9964;SDS011;5023;53.554;9.964;2023-02-08T21:55:57;44.07;;;28.27;;
9964;SDS011;5023;53.554;9.964;2023-02-08T22:00:59;43.03;;;26.23;;
9964;SDS011;5023;53.554;9.964;2023-02-08T22:06:05;38.03;;;25.63;;
9964;SDS011;5023;53.554;9.964;2023-02-08T22:11:27;40.50;;;26.70;;
9964;SDS011;5023;53.554;9.964;2023-02-08T22:16:29;41.07;;;25.07;;
9964;SDS011;5023;53.554;9.964;2023-02-08T22:21:31;46.03;;;26.77;;
9964;SDS011;5023;53.554;9.964;2023-02-08T22:26:35;41.90;;;27.03;;
9964;SDS011;5023;53.554;9.964;2023-02-08T22:31:37;44.30;;;26.97;;
9964;SDS011;5023;53.554;9.964;2023-02-08T22:36:40;44.23;;;28.37;;
9964;SDS011;5023;53.554;9.964;2023-02-08T22:41:43;43.80;;;28.27;;
9964;SDS011;5023;53.554;9.964;2023-02-08T22:46:47;44.67;;;28.03;;
9964;SDS011;5023;53.554;9.964;2023-02-08T22:51:49;46.30;;;28.57;;
9964;SDS011;5023;53.554;9.964;2023-02-08T22:56:53;43.33;;;27.13;;
9964;SDS011;5023;53.554;9.964;2023-02-08T23:01:55;43.50;;;27.77;;
9964;SDS011;5023;53.554;9.964;2023-02-08T23:06:57;48.67;;;29.23;;
9964;SDS011;5023;53.554;9.964;2023-02-08T23:12:01;49.70;;;31.27;;
9964;SDS011;5023;53.554;9.964;2023-02-08T23:17:03;50.77;;;31.60;;
9964;SDS011;5023;53.554;9.964;2023-02-08T23:22:07;47.27;;;29.93;;
9964;SDS011;5023;53.554;9.964;2023-02-08T23:27:10;44.40;;;28.50;;
9964;SDS011;5023;53.554;9.964;2023-02-08T23:32:12;43.40;;;28.30;;
9964;SDS011;5023;53.554;9.964;2023-02-08T23:37:15;46.93;;;28.83;;
9964;SDS011;5023;53.554;9.964;2023-02-08T23:42:18;46.30;;;28.43;;
9964;SDS011;5023;53.554;9.964;2023-02-08T23:47:26;44.77;;;28.73;;
9964;SDS011;5023;53.554;9.964;2023-02-08T23:52:29;43.60;;;28.73;;
9964;SDS011;5023;53.554;9.964;2023-02-08T23:57:32;46.13;;;29.80;;
